sensor_id;sensor_type;location;lat;lon;timestamp;P1;durP1;ratioP1;P2;durP2;ratioP2
63406;SDS011;49543;45.892;10.838;2023-07-13T00:01:27;20.52;;;8.93;;
63406;SDS011;49543;45.892;10.838;2023-07-13T00:03:54;17.25;;;9.15;;
63406;SDS011;49543;45.892;10.838;2023-07-13T00:06:20;13.15;;;8.48;;
63406;SDS011;49543;45.892;10.838;2023-07-13T00:08:46;14.00;;;8.38;;
63406;SDS011;49543;45.892;10.838;2023-07-13T00:11:12;13.60;;;8.13;;
63406;SDS011;49543;45.892;10.838;2023-07-13T00:13:39;15.52;;;7.82;;
63406;SDS011;49543;45.892;10.838;2023-07-13T00:16:05;14.00;;;8.25;;
63406;SDS011;49543;45.892;10.838;2023-07-13T00:18:31;14.90;;;7.95;;
63406;SDS011;49543;45.892;10.838;2023-07-13T00:20:57;10.55;;;7.03;;
63406;SDS011;49543;45.892;10.838;2023-07-13T00:23:33;10.77;;;7.38;;
63406;SDS011;49543;45.892;10.838;2023-07-13T00:26:02;11.73;;;7.47;;
63406;SDS011;49543;45.892;10.838;2023-07-13T00:28:29;12.25;;;7.25;;
63406;SDS011;49543;45.892;10.838;2023-07-13T00:30:55;13.43;;;8.45;;
63406;SDS011;49543;45.892;10.838;2023-07-13T00:33:20;12.40;;;7.78;;
63406;SDS011;49543;45.892;10.838;2023-07-13T00:35:48;10.52;;;7.20;;
63406;SDS011;49543;45.892;10.838;2023-07-13T00:38:13;11.35;;;6.90;;
63406;SDS011;49543;45.892;10.838;2023-07-13T00:40:39;11.05;;;6.95;;
63406;SDS011;49543;45.892;10.838;2023-07-13T00:43:18;10.73;;;6.93;;
63406;SDS011;49543;45.892;10.838;2023-07-13T00:48:18;9.35;;;6.72;;
63406;SDS011;49543;45.892;10.838;2023-07-13T00:50:46;9.32;;;6.82;;
63406;SDS011;49543;45.892;10.838;2023-07-13T00:53:16;11.35;;;6.90;;
63406;SDS011;49543;45.892;10.838;2023-07-13T00:55:43;9.25;;;6.55;;
63406;SDS011;49543;45.892;10.838;2023-07-13T00:58:08;10.70;;;7.28;;
63406;SDS011;49543;45.892;10.838;2023-07-13T01:00:35;13.25;;;6.63;;
63406;SDS011;49543;45.892;10.838;2023-07-13T01:03:03;11.87;;;6.67;;
63406;SDS011;49543;45.892;10.838;2023-07-13T01:05:30;9.93;;;6.68;;
63406;SDS011;49543;45.892;10.838;2023-07-13T01:07:57;10.48;;;7.00;;
63406;SDS011;49543;45.892;10.838;2023-07-13T01:10:25;10.18;;;6.85;;
63406;SDS011;49543;45.892;10.838;2023-07-13T01:12:51;9.68;;;6.80;;
63406;SDS011;49543;45.892;10.838;2023-07-13T01:18:06;9.63;;;6.22;;
63406;SDS011;49543;45.892;10.838;2023-07-13T01:20:32;10.23;;;6.50;;
63406;SDS011;49543;45.892;10.838;2023-07-13T01:23:10;8.82;;;5.82;;
63406;SDS011;49543;45.892;10.838;2023-07-13T01:25:38;10.75;;;6.22;;
63406;SDS011;49543;45.892;10.838;2023-07-13T01:28:04;8.75;;;6.50;;
63406;SDS011;49543;45.892;10.838;2023-07-13T01:30:31;9.18;;;6.40;;
63406;SDS011;49543;45.892;10.838;2023-07-13T01:32:57;10.77;;;6.68;;
63406;SDS011;49543;45.892;10.838;2023-07-13T01:35:23;12.68;;;7.10;;
63406;SDS011;49543;45.892;10.838;2023-07-13T01:37:50;12.23;;;6.45;;
63406;SDS011;49543;45.892;10.838;2023-07-13T01:40:16;7.57;;;5.60;;
63406;SDS011;49543;45.892;10.838;2023-07-13T01:42:41;7.10;;;5.88;;
63406;SDS011;49543;45.892;10.838;2023-07-13T01:45:07;5.97;;;4.80;;
63406;SDS011;49543;45.892;10.838;2023-07-13T01:47:33;6.13;;;4.50;;
63406;SDS011;49543;45.892;10.838;2023-07-13T01:49:58;6.82;;;4.32;;
63406;SDS011;49543;45.892;10.838;2023-07-13T01:52:24;6.53;;;4.93;;
63406;SDS011;49543;45.892;10.838;2023-07-13T01:54:49;6.00;;;4.88;;
63406;SDS011;49543;45.892;10.838;2023-07-13T01:57:15;9.85;;;4.40;;
63406;SDS011;49543;45.892;10.838;2023-07-13T01:59:40;7.03;;;4.53;;
63406;SDS011;49543;45.892;10.838;2023-07-13T02:02:06;5.72;;;4.55;;
63406;SDS011;49543;45.892;10.838;2023-07-13T02:04:31;4.93;;;4.43;;
63406;SDS011;49543;45.892;10.838;2023-07-13T02:06:57;6.53;;;4.70;;
63406;SDS011;49543;45.892;10.838;2023-07-13T02:09:22;6.10;;;4.50;;
63406;SDS011;49543;45.892;10.838;2023-07-13T02:11:48;5.38;;;4.63;;
63406;SDS011;49543;45.892;10.838;2023-07-13T02:14:13;5.13;;;4.30;;
63406;SDS011;49543;45.892;10.838;2023-07-13T02:16:40;6.70;;;4.75;;
63406;SDS011;49543;45.892;10.838;2023-07-13T02:19:06;6.63;;;4.45;;
63406;SDS011;49543;45.892;10.838;2023-07-13T02:21:31;7.05;;;4.90;;
63406;SDS011;49543;45.892;10.838;2023-07-13T02:23:57;6.05;;;4.95;;
63406;SDS011;49543;45.892;10.838;2023-07-13T02:26:22;8.25;;;4.57;;
63406;SDS011;49543;45.892;10.838;2023-07-13T02:28:48;7.38;;;4.78;;
63406;SDS011;49543;45.892;10.838;2023-07-13T02:31:14;6.97;;;4.40;;
63406;SDS011;49543;45.892;10.838;2023-07-13T02:33:40;7.00;;;4.32;;
63406;SDS011;49543;45.892;10.838;2023-07-13T02:36:06;6.80;;;4.53;;
63406;SDS011;49543;45.892;10.838;2023-07-13T02:38:32;4.93;;;4.00;;
63406;SDS011;49543;45.892;10.838;2023-07-13T02:40:59;6.00;;;4.10;;
63406;SDS011;49543;45.892;10.838;2023-07-13T02:43:25;5.30;;;4.15;;
63406;SDS011;49543;45.892;10.838;2023-07-13T02:45:50;5.28;;;3.50;;
63406;SDS011;49543;45.892;10.838;2023-07-13T02:48:16;5.97;;;3.70;;
63406;SDS011;49543;45.892;10.838;2023-07-13T02:50:42;5.70;;;4.00;;
63406;SDS011;49543;45.892;10.838;2023-07-13T02:53:08;4.55;;;3.67;;
63406;SDS011;49543;45.892;10.838;2023-07-13T02:55:34;3.72;;;3.35;;
63406;SDS011;49543;45.892;10.838;2023-07-13T02:57:59;6.75;;;4.45;;
63406;SDS011;49543;45.892;10.838;2023-07-13T03:00:25;5.57;;;3.40;;
63406;SDS011;49543;45.892;10.838;2023-07-13T03:02:50;6.47;;;3.67;;
63406;SDS011;49543;45.892;10.838;2023-07-13T03:05:16;6.65;;;4.13;;
63406;SDS011;49543;45.892;10.838;2023-07-13T03:07:41;6.20;;;4.07;;
63406;SDS011;49543;45.892;10.838;2023-07-13T03:10:08;5.57;;;4.35;;
63406;SDS011;49543;45.892;10.838;2023-07-13T03:12:34;4.93;;;4.00;;
63406;SDS011;49543;45.892;10.838;2023-07-13T03:15:00;5.00;;;3.70;;
63406;SDS011;49543;45.892;10.838;2023-07-13T03:17:26;6.25;;;3.80;;
63406;SDS011;49543;45.892;10.838;2023-07-13T03:19:51;4.80;;;3.63;;
63406;SDS011;49543;45.892;10.838;2023-07-13T03:22:17;6.43;;;3.88;;
63406;SDS011;49543;45.892;10.838;2023-07-13T03:24:43;5.00;;;3.67;;
63406;SDS011;49543;45.892;10.838;2023-07-13T03:27:09;7.03;;;4.07;;
63406;SDS011;49543;45.892;10.838;2023-07-13T03:29:35;6.22;;;4.63;;
63406;SDS011;49543;45.892;10.838;2023-07-13T03:32:00;6.75;;;4.32;;
63406;SDS011;49543;45.892;10.838;2023-07-13T03:34:26;7.80;;;4.60;;
63406;SDS011;49543;45.892;10.838;2023-07-13T03:36:53;6.95;;;4.18;;
63406;SDS011;49543;45.892;10.838;2023-07-13T03:39:19;5.80;;;5.13;;
63406;SDS011;49543;45.892;10.838;2023-07-13T03:41:45;8.30;;;4.93;;
63406;SDS011;49543;45.892;10.838;2023-07-13T03:44:11;5.13;;;4.20;;
63406;SDS011;49543;45.892;10.838;2023-07-13T03:46:36;6.95;;;4.32;;
63406;SDS011;49543;45.892;10.838;2023-07-13T03:49:03;4.43;;;3.72;;
63406;SDS011;49543;45.892;10.838;2023-07-13T03:51:29;5.15;;;4.07;;
63406;SDS011;49543;45.892;10.838;2023-07-13T03:53:54;4.15;;;3.50;;
63406;SDS011;49543;45.892;10.838;2023-07-13T03:56:20;6.80;;;3.78;;
63406;SDS011;49543;45.892;10.838;2023-07-13T03:58:46;4.68;;;3.67;;
63406;SDS011;49543;45.892;10.838;2023-07-13T04:01:14;4.20;;;3.80;;
63406;SDS011;49543;45.892;10.838;2023-07-13T04:03:41;4.28;;;3.20;;
63406;SDS011;49543;45.892;10.838;2023-07-13T04:06:07;3.65;;;3.35;;
63406;SDS011;49543;45.892;10.838;2023-07-13T04:08:40;3.78;;;3.38;;
63406;SDS011;49543;45.892;10.838;2023-07-13T04:11:06;7.15;;;3.95;;
63406;SDS011;49543;45.892;10.838;2023-07-13T04:13:31;5.32;;;3.45;;
63406;SDS011;49543;45.892;10.838;2023-07-13T04:15:57;4.15;;;3.33;;
63406;SDS011;49543;45.892;10.838;2023-07-13T04:18:23;6.13;;;4.07;;
63406;SDS011;49543;45.892;10.838;2023-07-13T04:20:49;5.03;;;4.53;;
63406;SDS011;49543;45.892;10.838;2023-07-13T04:23:15;4.45;;;4.00;;
63406;SDS011;49543;45.892;10.838;2023-07-13T04:25:45;4.00;;;3.53;;
63406;SDS011;49543;45.892;10.838;2023-07-13T04:28:11;4.00;;;3.40;;
63406;SDS011;49543;45.892;10.838;2023-07-13T04:30:37;4.05;;;3.63;;
63406;SDS011;49543;45.892;10.838;2023-07-13T04:33:02;3.90;;;3.30;;
63406;SDS011;49543;45.892;10.838;2023-07-13T04:35:29;3.92;;;3.33;;
63406;SDS011;49543;45.892;10.838;2023-07-13T04:37:55;3.55;;;3.10;;
63406;SDS011;49543;45.892;10.838;2023-07-13T04:40:21;4.07;;;3.22;;
63406;SDS011;49543;45.892;10.838;2023-07-13T04:42:47;3.80;;;3.40;;
63406;SDS011;49543;45.892;10.838;2023-07-13T04:45:13;4.03;;;3.22;;
63406;SDS011;49543;45.892;10.838;2023-07-13T04:47:40;3.72;;;3.20;;
63406;SDS011;49543;45.892;10.838;2023-07-13T04:50:07;3.70;;;3.40;;
63406;SDS011;49543;45.892;10.838;2023-07-13T04:52:33;5.28;;;3.20;;
63406;SDS011;49543;45.892;10.838;2023-07-13T04:54:59;5.38;;;3.35;;
63406;SDS011;49543;45.892;10.838;2023-07-13T04:57:25;3.60;;;3.30;;
63406;SDS011;49543;45.892;10.838;2023-07-13T04:59:51;3.50;;;3.20;;
63406;SDS011;49543;45.892;10.838;2023-07-13T05:02:17;3.83;;;3.50;;
63406;SDS011;49543;45.892;10.838;2023-07-13T05:04:45;4.18;;;3.80;;
63406;SDS011;49543;45.892;10.838;2023-07-13T05:07:12;3.90;;;3.50;;
63406;SDS011;49543;45.892;10.838;2023-07-13T05:09:38;3.80;;;3.50;;
63406;SDS011;49543;45.892;10.838;2023-07-13T05:12:05;3.80;;;3.50;;
63406;SDS011;49543;45.892;10.838;2023-07-13T05:14:32;5.22;;;4.00;;
63406;SDS011;49543;45.892;10.838;2023-07-13T05:16:57;5.45;;;3.60;;
63406;SDS011;49543;45.892;10.838;2023-07-13T05:19:23;7.10;;;3.75;;
63406;SDS011;49543;45.892;10.838;2023-07-13T05:21:51;3.75;;;3.45;;
63406;SDS011;49543;45.892;10.838;2023-07-13T05:24:17;5.20;;;3.97;;
63406;SDS011;49543;45.892;10.838;2023-07-13T05:26:43;5.95;;;5.38;;
63406;SDS011;49543;45.892;10.838;2023-07-13T05:29:25;5.47;;;4.40;;
63406;SDS011;49543;45.892;10.838;2023-07-13T05:34:23;5.38;;;3.50;;
63406;SDS011;49543;45.892;10.838;2023-07-13T05:39:14;3.25;;;2.95;;
63406;SDS011;49543;45.892;10.838;2023-07-13T05:41:39;3.58;;;3.28;;
63406;SDS011;49543;45.892;10.838;2023-07-13T05:44:05;2.80;;;2.60;;
63406;SDS011;49543;45.892;10.838;2023-07-13T05:46:30;3.22;;;2.92;;
63406;SDS011;49543;45.892;10.838;2023-07-13T05:48:56;4.60;;;3.17;;
63406;SDS011;49543;45.892;10.838;2023-07-13T05:51:22;4.15;;;2.95;;
63406;SDS011;49543;45.892;10.838;2023-07-13T05:53:47;3.47;;;3.17;;
63406;SDS011;49543;45.892;10.838;2023-07-13T05:56:12;4.38;;;3.22;;
63406;SDS011;49543;45.892;10.838;2023-07-13T05:58:38;3.47;;;3.17;;
63406;SDS011;49543;45.892;10.838;2023-07-13T06:01:08;7.25;;;3.75;;
63406;SDS011;49543;45.892;10.838;2023-07-13T06:03:36;5.70;;;3.65;;
63406;SDS011;49543;45.892;10.838;2023-07-13T06:06:05;3.42;;;3.13;;
63406;SDS011;49543;45.892;10.838;2023-07-13T06:08:32;4.93;;;4.03;;
63406;SDS011;49543;45.892;10.838;2023-07-13T06:11:02;3.60;;;3.20;;
63406;SDS011;49543;45.892;10.838;2023-07-13T06:13:31;3.78;;;3.08;;
63406;SDS011;49543;45.892;10.838;2023-07-13T06:15:58;3.33;;;3.03;;
63406;SDS011;49543;45.892;10.838;2023-07-13T06:18:23;3.70;;;3.40;;
63406;SDS011;49543;45.892;10.838;2023-07-13T09:40:56;12.95;;;6.78;;
63406;SDS011;49543;45.892;10.838;2023-07-13T09:43:24;8.05;;;5.40;;
63406;SDS011;49543;45.892;10.838;2023-07-13T09:45:50;6.68;;;4.85;;
63406;SDS011;49543;45.892;10.838;2023-07-13T09:48:16;5.32;;;4.82;;
63406;SDS011;49543;45.892;10.838;2023-07-13T09:50:43;5.22;;;4.63;;
63406;SDS011;49543;45.892;10.838;2023-07-13T09:53:16;5.28;;;4.43;;
63406;SDS011;49543;45.892;10.838;2023-07-13T09:55:44;4.65;;;4.15;;
63406;SDS011;49543;45.892;10.838;2023-07-13T09:58:19;5.47;;;4.32;;
63406;SDS011;49543;45.892;10.838;2023-07-13T10:01:01;5.13;;;4.38;;
63406;SDS011;49543;45.892;10.838;2023-07-13T10:03:28;5.07;;;4.57;;
63406;SDS011;49543;45.892;10.838;2023-07-13T10:06:01;5.03;;;4.30;;
63406;SDS011;49543;45.892;10.838;2023-07-13T10:08:36;4.57;;;4.18;;
63406;SDS011;49543;45.892;10.838;2023-07-13T10:11:10;4.80;;;4.22;;
63406;SDS011;49543;45.892;10.838;2023-07-13T10:13:54;4.97;;;4.45;;
63406;SDS011;49543;45.892;10.838;2023-07-13T10:16:33;4.70;;;4.20;;
63406;SDS011;49543;45.892;10.838;2023-07-13T10:19:05;4.47;;;4.07;;
63406;SDS011;49543;45.892;10.838;2023-07-13T10:21:38;6.93;;;5.65;;
63406;SDS011;49543;45.892;10.838;2023-07-13T10:24:18;4.25;;;3.85;;
63406;SDS011;49543;45.892;10.838;2023-07-13T10:29:44;5.07;;;4.30;;
63406;SDS011;49543;45.892;10.838;2023-07-13T10:32:13;5.60;;;4.45;;
63406;SDS011;49543;45.892;10.838;2023-07-13T10:34:41;4.50;;;4.10;;
63406;SDS011;49543;45.892;10.838;2023-07-13T10:37:15;4.25;;;3.90;;
63406;SDS011;49543;45.892;10.838;2023-07-13T10:39:46;3.72;;;3.42;;
63406;SDS011;49543;45.892;10.838;2023-07-13T10:42:14;4.00;;;3.70;;
63406;SDS011;49543;45.892;10.838;2023-07-13T10:44:48;4.88;;;3.80;;
63406;SDS011;49543;45.892;10.838;2023-07-13T10:47:15;5.65;;;3.25;;
63406;SDS011;49543;45.892;10.838;2023-07-13T10:49:43;3.88;;;3.13;;
63406;SDS011;49543;45.892;10.838;2023-07-13T10:55:32;3.90;;;3.60;;
63406;SDS011;49543;45.892;10.838;2023-07-13T10:58:38;2.90;;;2.70;;
63406;SDS011;49543;45.892;10.838;2023-07-13T11:01:17;3.42;;;3.13;;
63406;SDS011;49543;45.892;10.838;2023-07-13T11:16:35;3.00;;;2.80;;
63406;SDS011;49543;45.892;10.838;2023-07-13T11:21:27;3.53;;;3.03;;
63406;SDS011;49543;45.892;10.838;2023-07-13T11:24:02;3.87;;;2.60;;
63406;SDS011;49543;45.892;10.838;2023-07-13T11:34:47;2.67;;;2.47;;
63406;SDS011;49543;45.892;10.838;2023-07-13T11:37:14;2.90;;;2.60;;
63406;SDS011;49543;45.892;10.838;2023-07-13T11:39:43;2.30;;;2.10;;
63406;SDS011;49543;45.892;10.838;2023-07-13T11:42:15;2.55;;;2.35;;
63406;SDS011;49543;45.892;10.838;2023-07-13T11:44:43;2.53;;;2.33;;
63406;SDS011;49543;45.892;10.838;2023-07-13T11:47:14;2.75;;;2.30;;
63406;SDS011;49543;45.892;10.838;2023-07-13T20:14:22;2.03;;;1.70;;
63406;SDS011;49543;45.892;10.838;2023-07-13T20:16:49;1.90;;;1.80;;
63406;SDS011;49543;45.892;10.838;2023-07-13T20:19:21;2.30;;;1.95;;
63406;SDS011;49543;45.892;10.838;2023-07-13T20:21:46;4.40;;;2.10;;
63406;SDS011;49543;45.892;10.838;2023-07-13T20:24:16;1.85;;;1.75;;
63406;SDS011;49543;45.892;10.838;2023-07-13T20:26:44;3.03;;;2.42;;
63406;SDS011;49543;45.892;10.838;2023-07-13T20:29:11;2.72;;;2.08;;
63406;SDS011;49543;45.892;10.838;2023-07-13T20:31:37;2.05;;;1.90;;
63406;SDS011;49543;45.892;10.838;2023-07-13T20:34:03;2.47;;;1.80;;
63406;SDS011;49543;45.892;10.838;2023-07-13T20:36:29;2.13;;;1.90;;
63406;SDS011;49543;45.892;10.838;2023-07-13T20:38:57;1.83;;;1.73;;
63406;SDS011;49543;45.892;10.838;2023-07-13T20:41:23;3.47;;;1.90;;
63406;SDS011;49543;45.892;10.838;2023-07-13T20:43:49;3.55;;;2.03;;
63406;SDS011;49543;45.892;10.838;2023-07-13T20:46:15;2.55;;;1.67;;
63406;SDS011;49543;45.892;10.838;2023-07-13T20:48:43;2.30;;;2.10;;
63406;SDS011;49543;45.892;10.838;2023-07-13T20:51:13;3.95;;;2.20;;
63406;SDS011;49543;45.892;10.838;2023-07-13T20:53:42;2.20;;;1.77;;
63406;SDS011;49543;45.892;10.838;2023-07-13T20:56:14;2.77;;;1.93;;
